createdAt,value
2023-05-16T00:01:24.169Z,25.86
2023-05-16T00:03:03.885Z,25.85
2023-05-16T00:04:43.650Z,25.85
2023-05-16T00:06:23.423Z,25.85
2023-05-16T00:08:03.200Z,25.85
2023-05-16T00:09:42.977Z,25.85
2023-05-16T00:11:22.748Z,25.85
2023-05-16T00:13:02.489Z,25.85
2023-05-16T00:14:42.264Z,25.84
2023-05-16T00:16:22.037Z,25.84
2023-05-16T00:18:01.795Z,25.84
2023-05-16T00:19:41.557Z,25.84
2023-05-16T00:21:21.328Z,25.84
2023-05-16T00:23:01.085Z,25.83
2023-05-16T00:24:40.862Z,25.83
2023-05-16T00:26:20.641Z,25.83
2023-05-16T00:28:00.392Z,25.83
2023-05-16T00:29:40.168Z,25.83
2023-05-16T00:31:19.950Z,25.83
2023-05-16T00:32:59.712Z,25.83
2023-05-16T00:34:39.475Z,25.83
2023-05-16T00:36:19.239Z,25.83
2023-05-16T00:37:59.003Z,25.82
2023-05-16T00:39:38.774Z,25.83
2023-05-16T00:41:18.548Z,25.82
2023-05-16T00:42:58.311Z,25.82
2023-05-16T00:44:38.094Z,25.81
2023-05-16T00:46:17.855Z,25.81
2023-05-16T00:47:57.621Z,25.82
2023-05-16T00:49:37.389Z,25.81
2023-05-16T00:51:17.160Z,25.82
2023-05-16T00:52:56.911Z,25.81
2023-05-16T00:54:36.680Z,25.8
2023-05-16T00:56:16.456Z,25.81
2023-05-16T00:57:56.220Z,25.81
2023-05-16T00:59:35.980Z,25.81
2023-05-16T01:01:15.766Z,25.8
2023-05-16T01:02:55.517Z,25.8
2023-05-16T01:04:35.281Z,25.8
2023-05-16T01:06:15.056Z,25.8
2023-05-16T01:07:54.821Z,25.8
2023-05-16T01:09:34.606Z,25.79
2023-05-16T01:11:14.354Z,25.8
2023-05-16T01:12:54.120Z,25.79
2023-05-16T01:14:33.894Z,25.79
2023-05-16T01:16:13.658Z,25.79
2023-05-16T01:17:53.423Z,25.79
2023-05-16T01:19:33.186Z,25.77
2023-05-16T01:21:12.948Z,25.78
2023-05-16T01:22:52.733Z,25.79
2023-05-16T01:24:32.480Z,25.78
2023-05-16T01:26:12.253Z,25.78
2023-05-16T01:27:52.023Z,25.78
2023-05-16T01:29:31.795Z,25.78
2023-05-16T01:31:11.559Z,25.78
2023-05-16T01:32:51.336Z,25.77
2023-05-16T01:34:31.080Z,25.77
2023-05-16T01:36:10.872Z,25.77
2023-05-16T01:37:50.622Z,25.77
2023-05-16T01:39:30.401Z,25.77
2023-05-16T01:41:10.167Z,25.77
2023-05-16T01:42:49.927Z,25.76
2023-05-16T01:44:29.700Z,25.76
2023-05-16T01:46:09.470Z,25.76
2023-05-16T01:47:49.227Z,25.76
2023-05-16T01:49:29.011Z,25.76
2023-05-16T01:51:08.763Z,25.76
2023-05-16T01:52:48.563Z,25.76
2023-05-16T01:54:28.305Z,25.76
2023-05-16T01:56:08.069Z,25.76
2023-05-16T01:57:47.834Z,25.76
2023-05-16T01:59:27.594Z,25.75
2023-05-16T02:01:07.378Z,25.76
2023-05-16T02:02:47.144Z,25.74
2023-05-16T02:04:26.904Z,25.75
2023-05-16T02:06:06.678Z,25.74
2023-05-16T02:07:46.436Z,25.74
2023-05-16T02:09:26.206Z,25.73
2023-05-16T02:11:05.968Z,25.74
2023-05-16T02:12:45.747Z,25.74
2023-05-16T02:14:25.506Z,25.74
2023-05-16T02:16:05.295Z,25.74
2023-05-16T02:17:45.050Z,25.73
2023-05-16T02:19:24.823Z,25.73
2023-05-16T02:21:04.587Z,25.74
2023-05-16T02:22:44.346Z,25.73
2023-05-16T02:24:24.119Z,25.73
2023-05-16T02:26:03.895Z,25.73
2023-05-16T02:27:43.661Z,25.73
2023-05-16T02:29:23.424Z,25.73
2023-05-16T02:31:03.199Z,25.72
2023-05-16T02:32:42.950Z,25.73
2023-05-16T02:34:22.720Z,25.71
2023-05-16T02:36:02.489Z,25.72
2023-05-16T02:37:42.258Z,25.72
2023-05-16T02:39:22.025Z,25.72
2023-05-16T02:41:01.784Z,25.72
2023-05-16T02:42:41.559Z,25.72
2023-05-16T02:44:21.321Z,25.72
2023-05-16T02:46:01.113Z,25.72
2023-05-16T02:47:40.859Z,25.72
2023-05-16T02:49:20.618Z,25.71
2023-05-16T02:51:00.390Z,25.71
2023-05-16T02:52:40.160Z,25.71
2023-05-16T02:54:19.938Z,25.7
2023-05-16T02:55:59.705Z,25.68
2023-05-16T02:57:39.460Z,25.69
2023-05-16T02:59:19.243Z,25.67
2023-05-16T03:00:58.993Z,25.68
2023-05-16T03:02:38.758Z,25.67
2023-05-16T03:04:18.535Z,25.67
2023-05-16T03:05:58.311Z,25.68
2023-05-16T03:07:38.059Z,25.66
2023-05-16T03:09:17.843Z,25.67
2023-05-16T03:10:57.614Z,25.67
2023-05-16T03:12:37.377Z,25.67
2023-05-16T03:14:17.142Z,25.67
2023-05-16T03:15:56.908Z,25.67
2023-05-16T03:17:36.685Z,25.67
2023-05-16T03:19:16.465Z,25.67
2023-05-16T03:20:56.224Z,25.67
2023-05-16T03:22:35.989Z,25.66
2023-05-16T03:24:15.749Z,25.65
2023-05-16T03:25:55.514Z,25.68
2023-05-16T03:27:35.287Z,25.68
2023-05-16T03:29:15.055Z,25.68
2023-05-16T03:30:54.810Z,25.69
2023-05-16T03:32:34.588Z,25.69
2023-05-16T03:34:14.357Z,25.68
2023-05-16T03:35:54.137Z,25.69
2023-05-16T03:37:33.878Z,25.69
2023-05-16T03:39:13.660Z,25.69
2023-05-16T03:40:53.429Z,25.7
2023-05-16T03:42:33.201Z,25.7
2023-05-16T03:44:12.962Z,25.7
2023-05-16T03:45:52.737Z,25.7
2023-05-16T03:47:32.490Z,25.71
2023-05-16T03:49:12.257Z,25.68
2023-05-16T03:50:52.025Z,25.71
2023-05-16T03:52:31.790Z,25.74
2023-05-16T03:54:11.587Z,25.74
2023-05-16T03:55:51.354Z,25.74
2023-05-16T03:57:31.130Z,25.75
2023-05-16T03:59:10.881Z,25.75
2023-05-16T04:00:50.633Z,25.75
2023-05-16T04:02:30.400Z,25.75
2023-05-16T04:04:10.163Z,25.78
2023-05-16T04:05:49.950Z,25.79
2023-05-16T04:07:29.718Z,25.79
2023-05-16T04:09:09.474Z,25.79
2023-05-16T04:10:49.239Z,25.78
2023-05-16T04:12:29.013Z,25.79
2023-05-16T04:14:08.784Z,25.78
2023-05-16T04:15:48.546Z,25.83
2023-05-16T04:17:28.347Z,25.84
2023-05-16T04:19:08.091Z,25.84
2023-05-16T04:20:47.856Z,25.88
2023-05-16T04:22:27.635Z,25.89
2023-05-16T04:24:07.390Z,25.91
2023-05-16T04:25:47.178Z,25.93
2023-05-16T04:27:26.925Z,25.94
2023-05-16T04:29:06.713Z,25.95
2023-05-16T04:30:46.469Z,25.96
2023-05-16T04:32:26.237Z,25.97
2023-05-16T04:34:06.010Z,25.98
2023-05-16T04:35:45.792Z,25.99
2023-05-16T04:37:25.559Z,25.98
2023-05-16T04:39:05.335Z,25.97
2023-05-16T04:40:45.089Z,26
2023-05-16T04:42:24.861Z,26
2023-05-16T04:44:04.636Z,26
2023-05-16T04:45:44.408Z,26.02
2023-05-16T04:47:24.167Z,26.02
2023-05-16T04:49:03.934Z,26.02
2023-05-16T04:50:43.711Z,26.04
2023-05-16T04:52:23.489Z,26.03
2023-05-16T04:54:03.260Z,26.04
2023-05-16T04:55:43.041Z,26.12
2023-05-16T04:57:22.794Z,26.1
2023-05-16T04:59:02.558Z,26.09
2023-05-16T05:00:42.337Z,26.11
2023-05-16T05:02:22.092Z,26.11
2023-05-16T05:04:01.864Z,26.12
2023-05-16T05:05:41.645Z,26.08
2023-05-16T05:07:21.404Z,26.14
2023-05-16T05:09:01.174Z,26.17
2023-05-16T05:10:40.946Z,26.19
2023-05-16T05:12:20.735Z,26.22
2023-05-16T05:14:00.495Z,26.22
2023-05-16T05:15:40.264Z,26.24
2023-05-16T05:17:20.031Z,26.25
2023-05-16T05:18:59.800Z,26.27
2023-05-16T05:20:39.568Z,26.29
2023-05-16T05:22:19.339Z,26.32
2023-05-16T05:23:59.118Z,26.32
2023-05-16T05:25:38.891Z,26.33
2023-05-16T05:27:18.654Z,26.35
2023-05-16T05:28:58.433Z,26.37
2023-05-16T05:30:38.188Z,26.39
2023-05-16T05:32:17.960Z,26.31
2023-05-16T05:33:57.746Z,26.46
2023-05-16T05:35:37.506Z,26.47
2023-05-16T05:37:17.281Z,26.49
2023-05-16T05:38:57.057Z,26.52
2023-05-16T05:40:36.812Z,26.55
2023-05-16T05:42:16.601Z,26.56
2023-05-16T05:43:56.344Z,26.6
2023-05-16T05:45:36.113Z,26.64
2023-05-16T05:47:15.894Z,26.65
2023-05-16T05:48:55.662Z,26.69
2023-05-16T05:50:35.432Z,26.75
2023-05-16T05:52:15.203Z,26.82
2023-05-16T05:53:54.987Z,26.86
2023-05-16T05:55:34.753Z,27.07
2023-05-16T05:57:14.514Z,27.07
2023-05-16T05:58:54.280Z,27.03
2023-05-16T06:00:34.066Z,27.05
2023-05-16T06:02:13.840Z,27.08
2023-05-16T06:03:53.613Z,27.13
2023-05-16T06:05:33.377Z,27.18
2023-05-16T06:07:13.141Z,27.21
2023-05-16T06:08:52.936Z,27.25
2023-05-16T06:10:32.689Z,27.3
2023-05-16T06:12:12.470Z,27.35
2023-05-16T06:13:52.219Z,27.35
2023-05-16T06:15:32.024Z,27.39
2023-05-16T06:17:11.779Z,27.52
2023-05-16T06:18:51.539Z,27.59
2023-05-16T06:20:31.308Z,27.6
2023-05-16T06:22:11.104Z,27.67
2023-05-16T06:23:50.852Z,27.66
2023-05-16T06:25:30.639Z,27.82
2023-05-16T06:27:10.380Z,27.86
2023-05-16T06:28:50.153Z,28.02
2023-05-16T06:30:29.955Z,28.08
2023-05-16T06:32:09.689Z,28.15
2023-05-16T06:33:49.473Z,28.25
2023-05-16T06:35:29.243Z,28.37
2023-05-16T06:37:09.005Z,28.47
2023-05-16T06:38:48.791Z,28.44
2023-05-16T06:40:28.543Z,28.46
2023-05-16T06:42:08.328Z,28.58
2023-05-16T06:43:48.087Z,28.62
2023-05-16T06:45:27.883Z,28.66
2023-05-16T06:47:07.630Z,28.68
2023-05-16T06:48:47.414Z,28.73
2023-05-16T06:50:27.171Z,28.76
2023-05-16T06:52:07.015Z,28.56
2023-05-16T06:53:46.717Z,28.49
2023-05-16T06:55:26.474Z,28.49
2023-05-16T06:57:06.273Z,29.39
2023-05-16T06:58:46.063Z,29.28
2023-05-16T07:00:25.800Z,29.28
2023-05-16T07:02:05.560Z,29.28
2023-05-16T07:03:45.329Z,29.28
2023-05-16T07:05:25.114Z,29.28
2023-05-16T07:07:04.877Z,29.27
2023-05-16T07:08:44.649Z,29.28
2023-05-16T07:10:24.409Z,29.27
2023-05-16T07:12:04.182Z,29.28
2023-05-16T07:13:43.953Z,29.27
2023-05-16T07:15:23.726Z,29.25
2023-05-16T07:17:03.496Z,29.27
2023-05-16T07:18:43.267Z,29.27
2023-05-16T07:20:23.041Z,29.27
2023-05-16T07:22:02.810Z,29.28
2023-05-16T07:23:42.587Z,29.28
2023-05-16T07:25:22.357Z,29.27
2023-05-16T07:27:02.128Z,29.27
2023-05-16T07:28:41.930Z,29.27
2023-05-16T07:30:21.733Z,29.26
2023-05-16T07:32:01.434Z,29.27
2023-05-16T07:33:41.201Z,29.26
2023-05-16T07:35:20.969Z,29.26
2023-05-16T07:37:00.749Z,29.26
2023-05-16T07:38:40.502Z,29.26
2023-05-16T07:40:20.288Z,29.24
2023-05-16T07:42:00.079Z,29.1
2023-05-16T07:43:40.035Z,29.27
2023-05-16T07:45:19.612Z,29.26
2023-05-16T07:46:59.367Z,29.28
2023-05-16T07:48:39.214Z,29.26
2023-05-16T07:50:18.894Z,29.26
2023-05-16T07:51:58.665Z,29.27
2023-05-16T07:53:38.436Z,29.27
2023-05-16T07:55:18.212Z,29.26
2023-05-16T07:56:57.978Z,29.27
2023-05-16T07:58:37.752Z,29.26
2023-05-16T08:00:17.521Z,29.27
2023-05-16T08:01:57.302Z,29.26
2023-05-16T08:03:37.068Z,29.25
2023-05-16T08:05:16.841Z,29.24
2023-05-16T08:06:56.609Z,29.25
2023-05-16T08:08:36.363Z,29.26
2023-05-16T08:10:16.231Z,29.27
2023-05-16T08:11:55.921Z,29.27
2023-05-16T08:13:35.701Z,29.27
2023-05-16T08:15:15.558Z,29.24
2023-05-16T08:16:55.429Z,29.26
2023-05-16T08:18:34.992Z,29.26
2023-05-16T08:20:14.774Z,29.27
2023-05-16T08:21:54.552Z,29.26
2023-05-16T08:23:34.316Z,29.25
2023-05-16T08:25:14.095Z,29.25
2023-05-16T08:26:53.861Z,29.26
2023-05-16T08:28:33.629Z,29.25
2023-05-16T08:30:13.391Z,29.25
2023-05-16T08:31:53.165Z,29.25
2023-05-16T08:33:32.933Z,29.23
2023-05-16T08:35:12.691Z,29.25
2023-05-16T08:36:52.487Z,29.25
2023-05-16T08:38:32.239Z,29.26
2023-05-16T08:40:12.022Z,29.26
2023-05-16T08:41:51.890Z,29.25
2023-05-16T08:43:31.698Z,29.26
2023-05-16T08:45:11.325Z,29.25
2023-05-16T08:46:51.115Z,29.27
2023-05-16T08:48:30.871Z,29.25
2023-05-16T08:50:10.647Z,29.25
2023-05-16T08:51:50.418Z,29.25
2023-05-16T08:53:30.176Z,29.26
2023-05-16T08:55:09.946Z,29.25
2023-05-16T08:56:49.717Z,29.25
2023-05-16T08:58:29.491Z,29.24
2023-05-16T09:00:09.268Z,29.06
2023-05-16T09:01:49.033Z,29.25
2023-05-16T09:03:28.945Z,29.26
2023-05-16T09:05:08.709Z,29.25
2023-05-16T09:06:48.371Z,29.26
2023-05-16T09:08:28.118Z,29.26
2023-05-16T09:10:07.882Z,29.25
2023-05-16T09:11:47.661Z,29.27
2023-05-16T09:13:27.424Z,29.26
2023-05-16T09:15:07.189Z,29.25
2023-05-16T09:16:46.971Z,29.26
2023-05-16T09:18:26.745Z,29.26
2023-05-16T09:20:06.516Z,29.27
2023-05-16T09:21:46.271Z,29.25
2023-05-16T09:23:26.075Z,29.25
2023-05-16T09:25:05.818Z,29.24
2023-05-16T09:26:45.596Z,29.25
2023-05-16T09:28:25.368Z,29.25
2023-05-16T09:30:05.136Z,29.25
2023-05-16T09:31:44.909Z,29.26
2023-05-16T09:33:24.676Z,29.26
2023-05-16T09:35:04.454Z,29.26
2023-05-16T09:36:44.216Z,29.25
2023-05-16T09:38:23.994Z,29.25
2023-05-16T09:40:03.755Z,29.25
2023-05-16T09:41:43.531Z,29.25
2023-05-16T09:43:23.305Z,29.24
2023-05-16T09:45:03.114Z,29.24
2023-05-16T09:46:42.856Z,29.25
2023-05-16T09:48:22.626Z,29.24
2023-05-16T09:50:02.380Z,29.24
2023-05-16T09:51:42.136Z,29.21
2023-05-16T09:53:21.926Z,29.24
2023-05-16T09:55:01.682Z,29.25
2023-05-16T09:56:41.459Z,29.22
2023-05-16T09:58:21.232Z,27.88
2023-05-16T10:00:01.006Z,27.73
2023-05-16T10:01:40.774Z,27.64
2023-05-16T10:03:20.561Z,27.57
2023-05-16T10:05:00.305Z,27.5
2023-05-16T10:06:40.094Z,27.42
2023-05-16T10:08:19.851Z,27.4
2023-05-16T10:09:59.627Z,27.45
2023-05-16T10:11:39.386Z,27.45
2023-05-16T10:13:19.146Z,27.43
2023-05-16T10:14:58.934Z,27.44
2023-05-16T10:16:38.691Z,27.44
2023-05-16T10:18:18.471Z,27.31
2023-05-16T10:19:58.240Z,27.44
2023-05-16T10:21:38.025Z,27.43
2023-05-16T10:23:17.785Z,27.44
2023-05-16T10:24:57.550Z,27.44
2023-05-16T10:26:37.318Z,27.44
2023-05-16T10:28:17.174Z,27.45
2023-05-16T10:29:57.020Z,27.45
2023-05-16T10:31:36.627Z,27.45
2023-05-16T10:33:16.398Z,27.44
2023-05-16T10:34:56.178Z,27.45
2023-05-16T10:36:35.948Z,27.44
2023-05-16T10:38:15.705Z,27.45
2023-05-16T10:39:55.476Z,27.43
2023-05-16T10:41:35.253Z,27.45
2023-05-16T10:43:15.033Z,27.42
2023-05-16T10:44:54.810Z,27.44
2023-05-16T10:46:34.560Z,27.44
2023-05-16T10:48:14.331Z,27.44
2023-05-16T10:49:54.105Z,27.45
2023-05-16T10:51:33.883Z,27.45
2023-05-16T10:53:13.639Z,27.44
2023-05-16T10:54:53.412Z,27.44
2023-05-16T10:56:33.211Z,27.45
2023-05-16T10:58:12.943Z,27.44
2023-05-16T10:59:52.724Z,27.44
2023-05-16T11:01:32.496Z,27.43
2023-05-16T11:03:12.297Z,27.43
2023-05-16T11:04:52.042Z,27.45
2023-05-16T11:06:31.804Z,27.45
2023-05-16T11:08:11.571Z,27.44
2023-05-16T11:09:51.341Z,27.38
2023-05-16T11:11:31.121Z,27.43
2023-05-16T11:13:10.885Z,27.44
2023-05-16T11:14:50.653Z,27.45
2023-05-16T11:16:30.434Z,27.43
2023-05-16T11:18:10.200Z,27.43
2023-05-16T11:19:49.963Z,27.44
2023-05-16T11:21:29.731Z,27.43
2023-05-16T11:23:09.544Z,27.43
2023-05-16T11:24:49.315Z,27.44
2023-05-16T11:26:29.154Z,27.44
2023-05-16T11:28:08.975Z,27.44
2023-05-16T11:29:48.586Z,27.43
2023-05-16T11:31:28.375Z,27.43
2023-05-16T11:33:08.124Z,27.43
2023-05-16T11:34:47.898Z,27.42
2023-05-16T11:36:27.673Z,27.31
2023-05-16T11:38:07.446Z,27.44
2023-05-16T11:39:47.215Z,27.44
2023-05-16T11:41:26.986Z,27.42
2023-05-16T11:43:06.768Z,27.43
2023-05-16T11:44:46.543Z,27.43
2023-05-16T11:46:26.303Z,27.42
2023-05-16T11:48:06.080Z,27.43
2023-05-16T11:49:45.852Z,27.44
2023-05-16T11:51:25.614Z,27.42
2023-05-16T11:53:05.381Z,27.44
2023-05-16T11:54:45.158Z,27.44
2023-05-16T11:56:24.937Z,27.43
2023-05-16T11:58:04.854Z,27.44
2023-05-16T11:59:44.636Z,27.43
2023-05-16T12:01:24.346Z,27.41
2023-05-16T12:03:04.001Z,27.44
2023-05-16T12:04:43.777Z,27.44
2023-05-16T12:06:23.551Z,27.42
2023-05-16T12:08:03.333Z,27.42
2023-05-16T12:09:43.088Z,27.42
2023-05-16T12:11:22.847Z,27.42
2023-05-16T12:13:02.627Z,27.43
2023-05-16T12:14:42.397Z,27.43
2023-05-16T12:16:22.187Z,27.44
2023-05-16T12:18:01.938Z,27.42
2023-05-16T12:19:41.711Z,27.43
2023-05-16T12:21:21.476Z,27.44
2023-05-16T12:23:01.259Z,27.43
2023-05-16T12:24:41.011Z,27.43
2023-05-16T12:26:20.780Z,27.43
2023-05-16T12:28:00.569Z,27.32
2023-05-16T12:29:40.326Z,27.44
2023-05-16T12:31:20.117Z,27.44
2023-05-16T12:32:59.875Z,27.43
2023-05-16T12:34:39.639Z,27.43
2023-05-16T12:36:19.411Z,27.43
2023-05-16T12:37:59.194Z,27.43
2023-05-16T12:39:38.950Z,27.43
2023-05-16T12:41:18.727Z,27.42
2023-05-16T12:42:58.499Z,27.43
2023-05-16T12:44:38.262Z,27.42
2023-05-16T12:46:18.050Z,27.43
2023-05-16T12:47:57.802Z,27.42
2023-05-16T12:49:37.573Z,27.42
2023-05-16T12:51:17.348Z,27.42
2023-05-16T12:52:57.120Z,27.42
2023-05-16T12:54:36.888Z,27.42
2023-05-16T12:56:16.668Z,27.43
2023-05-16T12:57:56.438Z,27.43
2023-05-16T12:59:36.189Z,27.42
2023-05-16T13:01:15.981Z,27.42
2023-05-16T13:02:55.735Z,27.41
2023-05-16T13:04:35.532Z,27.4
2023-05-16T13:06:15.267Z,27.41
2023-05-16T13:07:55.335Z,27.42
2023-05-16T13:09:34.810Z,27.42
2023-05-16T13:11:14.588Z,27.42
2023-05-16T13:12:54.371Z,27.42
2023-05-16T13:14:34.141Z,27.41
2023-05-16T13:16:13.914Z,27.41
2023-05-16T13:17:53.678Z,27.41
2023-05-16T13:19:33.434Z,27.4
2023-05-16T13:21:13.210Z,27.42
2023-05-16T13:22:52.976Z,27.4
2023-05-16T13:24:32.750Z,27.41
2023-05-16T13:26:12.522Z,27.4
2023-05-16T13:27:52.306Z,27.41
2023-05-16T13:29:32.075Z,27.4
2023-05-16T13:31:11.826Z,27.41
2023-05-16T13:32:51.667Z,27.4
2023-05-16T13:34:31.456Z,27.4
2023-05-16T13:36:11.165Z,27.41
2023-05-16T13:37:50.920Z,27.41
2023-05-16T13:39:30.712Z,27.4
2023-05-16T13:41:10.454Z,27.41
2023-05-16T13:42:50.423Z,27.4
2023-05-16T13:44:30.020Z,27.4
2023-05-16T13:46:09.841Z,27.3
2023-05-16T13:47:49.546Z,27.4
2023-05-16T13:49:29.365Z,27.39
2023-05-16T13:51:09.106Z,27.4
2023-05-16T13:52:48.846Z,27.38
2023-05-16T13:54:28.638Z,27.4
2023-05-16T13:56:08.405Z,27.4
2023-05-16T13:57:48.159Z,27.39
2023-05-16T13:59:27.942Z,27.39
2023-05-16T14:01:07.701Z,27.39
2023-05-16T14:02:47.481Z,27.37
2023-05-16T14:04:27.249Z,27.39
2023-05-16T14:06:07.062Z,27.39
2023-05-16T14:07:46.781Z,27.37
2023-05-16T14:09:26.540Z,27.39
2023-05-16T14:11:06.330Z,27.38
2023-05-16T14:12:46.099Z,27.28
2023-05-16T14:14:25.860Z,27.37
2023-05-16T14:16:05.635Z,27.38
2023-05-16T14:17:45.399Z,27.38
2023-05-16T14:19:25.173Z,27.38
2023-05-16T14:21:04.938Z,27.38
2023-05-16T14:22:44.716Z,27.37
2023-05-16T14:24:24.528Z,27.38
2023-05-16T14:26:04.252Z,27.37
2023-05-16T14:27:44.026Z,27.37
2023-05-16T14:29:23.798Z,27.37
2023-05-16T14:31:03.567Z,27.38
2023-05-16T14:32:43.355Z,27.37
2023-05-16T14:34:23.112Z,27.37
2023-05-16T14:36:02.870Z,27.36
2023-05-16T14:37:42.656Z,27.34
2023-05-16T14:39:22.435Z,27.36
2023-05-16T14:41:02.202Z,27.37
2023-05-16T14:42:41.963Z,27.36
2023-05-16T14:44:21.735Z,27.36
2023-05-16T14:46:01.508Z,27.36
2023-05-16T14:47:41.272Z,27.36
2023-05-16T14:49:21.039Z,27.36
2023-05-16T14:51:00.806Z,27.36
2023-05-16T14:52:40.602Z,27.35
2023-05-16T14:54:20.358Z,27.36
2023-05-16T14:56:00.132Z,27.35
2023-05-16T14:57:39.898Z,27.35
2023-05-16T14:59:19.778Z,27.35
2023-05-16T15:00:59.443Z,27.35
2023-05-16T15:02:39.201Z,27.35
2023-05-16T15:04:18.986Z,27.17
2023-05-16T15:05:58.748Z,27.35
2023-05-16T15:07:38.532Z,27.36
2023-05-16T15:09:18.293Z,27.34
2023-05-16T15:10:58.076Z,27.34
2023-05-16T15:12:37.832Z,27.35
2023-05-16T15:14:17.601Z,27.34
2023-05-16T15:15:57.367Z,27.34
2023-05-16T15:17:37.148Z,27.34
2023-05-16T15:19:16.920Z,27.34
2023-05-16T15:20:56.823Z,27.34
2023-05-16T15:22:36.449Z,27.34
2023-05-16T15:24:16.258Z,27.34
2023-05-16T15:25:55.990Z,27.33
2023-05-16T15:27:35.775Z,27.33
2023-05-16T15:29:15.556Z,27.33
2023-05-16T15:30:55.349Z,27.34
2023-05-16T15:32:35.078Z,27.34
2023-05-16T15:34:14.847Z,27.33
2023-05-16T15:35:54.609Z,27.33
2023-05-16T15:37:34.400Z,27.32
2023-05-16T15:39:14.154Z,27.31
2023-05-16T15:40:53.936Z,27.33
2023-05-16T15:42:33.694Z,27.33
2023-05-16T15:44:13.485Z,27.32
2023-05-16T15:45:53.240Z,27.32
2023-05-16T15:47:33.007Z,27.33
2023-05-16T15:49:12.809Z,27.33
2023-05-16T15:50:52.641Z,27.33
2023-05-16T15:52:32.328Z,27.33
2023-05-16T15:54:12.147Z,27.32
2023-05-16T15:55:51.869Z,27.29
2023-05-16T15:57:31.697Z,27.31
2023-05-16T15:59:11.488Z,27.32
2023-05-16T16:00:51.206Z,27.32
2023-05-16T16:02:30.944Z,27.32
2023-05-16T16:04:10.851Z,27.31
2023-05-16T16:05:50.485Z,27.33
2023-05-16T16:07:30.322Z,27.31
2023-05-16T16:09:10.170Z,27.31
2023-05-16T16:10:49.811Z,27.32
2023-05-16T16:12:29.581Z,27.32
2023-05-16T16:14:09.359Z,27.31
2023-05-16T16:15:49.206Z,27.3
2023-05-16T16:17:28.880Z,27.3
2023-05-16T16:19:08.653Z,27.3
2023-05-16T16:20:48.419Z,27.3
2023-05-16T16:22:28.289Z,27.22
2023-05-16T16:24:07.962Z,27.31
2023-05-16T16:25:47.731Z,27.31
2023-05-16T16:27:27.559Z,27.3
2023-05-16T16:29:07.272Z,27.31
2023-05-16T16:30:47.073Z,27.31
2023-05-16T16:32:26.938Z,27.32
2023-05-16T16:34:06.596Z,27.3
2023-05-16T16:35:46.389Z,27.31
2023-05-16T16:37:26.134Z,27.31
2023-05-16T16:39:05.897Z,27.3
2023-05-16T16:40:45.735Z,27.29
2023-05-16T16:42:25.550Z,27.3
2023-05-16T16:44:05.382Z,27.3
2023-05-16T16:45:44.982Z,27.3
2023-05-16T16:47:24.761Z,27.28
2023-05-16T16:49:04.627Z,27.29
2023-05-16T16:50:44.369Z,27.3
2023-05-16T16:52:24.101Z,27.29
2023-05-16T16:54:03.916Z,27.29
2023-05-16T16:55:43.604Z,27.3
2023-05-16T16:57:23.395Z,27.3
2023-05-16T16:59:03.229Z,27.29
2023-05-16T17:00:42.921Z,27.29
2023-05-16T17:02:22.787Z,27.3
2023-05-16T17:04:02.561Z,27.29
2023-05-16T17:05:42.229Z,27.29
2023-05-16T17:07:22.069Z,27.3
2023-05-16T17:09:01.880Z,27.3
2023-05-16T17:10:41.615Z,27.29
2023-05-16T17:12:21.417Z,27.3
2023-05-16T17:14:01.088Z,27.28
2023-05-16T17:15:40.860Z,27.3
2023-05-16T17:17:20.625Z,27.3
2023-05-16T17:19:00.435Z,27.29
2023-05-16T17:20:40.195Z,27.3
2023-05-16T17:22:19.937Z,27.29
2023-05-16T17:23:59.710Z,27.3
2023-05-16T17:25:39.472Z,27.29
2023-05-16T17:27:19.239Z,27.3
2023-05-16T17:28:59.093Z,27.29
2023-05-16T17:30:38.864Z,27.29
2023-05-16T17:32:18.570Z,27.3
2023-05-16T17:33:58.316Z,27.28
2023-05-16T17:35:38.230Z,27.3
2023-05-16T17:37:17.986Z,27.28
2023-05-16T17:38:57.635Z,27.3
2023-05-16T17:40:37.401Z,27.13
2023-05-16T17:42:17.185Z,27.28
2023-05-16T17:43:56.951Z,27.3
2023-05-16T17:45:36.798Z,27.29
2023-05-16T17:47:16.486Z,27.29
2023-05-16T17:48:56.277Z,27.29
2023-05-16T17:50:36.032Z,27.29
2023-05-16T17:52:15.792Z,27.28
2023-05-16T17:53:55.568Z,27.29
2023-05-16T17:55:35.346Z,27.3
2023-05-16T17:57:15.101Z,27.29
2023-05-16T17:58:54.877Z,27.29
2023-05-16T18:00:34.674Z,27.3
2023-05-16T18:02:14.452Z,27.29
2023-05-16T18:03:54.203Z,27.3
2023-05-16T18:05:34.020Z,27.29
2023-05-16T18:07:13.733Z,27.22
2023-05-16T18:08:53.520Z,27.3
2023-05-16T18:10:33.299Z,27.3
2023-05-16T18:12:13.040Z,27.3
2023-05-16T18:13:52.830Z,27.29
2023-05-16T18:15:32.669Z,27.3
2023-05-16T18:17:12.392Z,27.3
2023-05-16T18:18:52.321Z,27.31
2023-05-16T18:20:32.018Z,27.3
2023-05-16T18:22:11.722Z,27.3
2023-05-16T18:23:51.541Z,27.3
2023-05-16T18:25:31.245Z,27.3
2023-05-16T18:27:11.131Z,27.31
2023-05-16T18:28:50.739Z,27.3
2023-05-16T18:30:30.507Z,27.31
2023-05-16T18:32:10.352Z,27.28
2023-05-16T18:33:50.074Z,27.31
2023-05-16T18:35:29.854Z,27.3
2023-05-16T18:37:09.758Z,27.3
2023-05-16T18:38:49.523Z,27.26
2023-05-16T18:40:29.131Z,27.23
2023-05-16T18:42:08.914Z,27.16
2023-05-16T18:43:48.769Z,27.12
2023-05-16T18:45:28.442Z,27.08
2023-05-16T18:47:08.213Z,27.04
2023-05-16T18:48:47.987Z,27
2023-05-16T18:50:27.772Z,26.97
2023-05-16T18:52:07.701Z,26.91
2023-05-16T18:53:47.463Z,26.89
2023-05-16T18:55:27.233Z,26.86
2023-05-16T18:57:06.854Z,26.82
2023-05-16T18:58:46.601Z,26.8
2023-05-16T19:00:26.518Z,26.76
2023-05-16T19:02:06.226Z,26.73
2023-05-16T19:03:45.924Z,26.72
2023-05-16T19:05:25.827Z,26.68
2023-05-16T19:07:05.541Z,26.65
2023-05-16T19:08:45.294Z,26.63
2023-05-16T19:10:25.101Z,26.6
2023-05-16T19:12:04.733Z,26.57
2023-05-16T19:13:44.633Z,26.55
2023-05-16T19:15:24.270Z,26.52
2023-05-16T19:17:04.024Z,26.5
2023-05-16T19:18:43.856Z,26.47
2023-05-16T19:20:23.554Z,26.46
2023-05-16T19:22:03.351Z,26.45
2023-05-16T19:23:43.153Z,26.44
2023-05-16T19:25:22.886Z,26.42
2023-05-16T19:27:02.734Z,26.41
2023-05-16T19:28:42.421Z,26.4
2023-05-16T19:30:22.160Z,26.38
2023-05-16T19:32:02.013Z,26.37
2023-05-16T19:33:41.718Z,26.35
2023-05-16T19:35:21.484Z,26.34
2023-05-16T19:37:01.258Z,26.33
2023-05-16T19:38:41.087Z,26.32
2023-05-16T19:40:20.806Z,26.3
2023-05-16T19:42:00.543Z,26.3
2023-05-16T19:43:40.412Z,26.28
2023-05-16T19:45:20.100Z,26.27
2023-05-16T19:47:00.074Z,26.26
2023-05-16T19:48:39.735Z,26.25
2023-05-16T19:50:19.544Z,26.24
2023-05-16T19:51:59.291Z,26.23
2023-05-16T19:53:39.118Z,26.22
2023-05-16T19:55:18.681Z,26.21
2023-05-16T19:56:58.627Z,26.2
2023-05-16T19:58:38.371Z,26.19
2023-05-16T20:00:18.103Z,26.18
2023-05-16T20:01:57.917Z,26.18
2023-05-16T20:03:37.525Z,26.17
2023-05-16T20:05:17.299Z,26.16
2023-05-16T20:06:57.053Z,26.15
2023-05-16T20:08:36.967Z,26.15
2023-05-16T20:10:16.617Z,26.14
2023-05-16T20:11:56.423Z,26.13
2023-05-16T20:13:36.173Z,26.13
2023-05-16T20:15:15.906Z,26.12
2023-05-16T20:16:55.655Z,26.12
2023-05-16T20:18:35.445Z,26.11
2023-05-16T20:20:15.238Z,26.11
2023-05-16T20:21:54.986Z,26.1
2023-05-16T20:23:34.750Z,26.1
2023-05-16T20:25:14.497Z,26.09
2023-05-16T20:26:54.268Z,26.09
2023-05-16T20:28:34.083Z,26.08
2023-05-16T20:30:13.812Z,26.09
2023-05-16T20:31:53.573Z,26.08
2023-05-16T20:33:33.391Z,26.07
2023-05-16T20:35:13.101Z,26.07
2023-05-16T20:36:52.876Z,26.06
2023-05-16T20:38:32.717Z,26.06
2023-05-16T20:40:12.435Z,26.07
2023-05-16T20:41:52.169Z,26.07
2023-05-16T20:43:31.938Z,26.05
2023-05-16T20:45:11.750Z,26.05
2023-05-16T20:46:51.485Z,26.05
2023-05-16T20:48:31.264Z,26.05
2023-05-16T20:50:11.065Z,26.05
2023-05-16T20:51:50.782Z,26.05
2023-05-16T20:53:30.564Z,26.04
2023-05-16T20:55:10.324Z,26.05
2023-05-16T20:56:50.116Z,26.04
2023-05-16T20:58:29.940Z,26.03
2023-05-16T21:00:09.684Z,26.04
2023-05-16T21:01:49.376Z,26.03
2023-05-16T21:03:29.204Z,26.03
2023-05-16T21:05:08.974Z,26.03
2023-05-16T21:06:48.755Z,26.02
2023-05-16T21:08:28.464Z,26.03
2023-05-16T21:10:08.400Z,26.02
2023-05-16T21:11:47.990Z,26.02
2023-05-16T21:13:27.830Z,26.02
2023-05-16T21:15:07.518Z,26.02
2023-05-16T21:16:47.297Z,26.02
2023-05-16T21:18:27.061Z,26.01
2023-05-16T21:20:06.852Z,26.01
2023-05-16T21:21:46.620Z,26.01
2023-05-16T21:23:26.415Z,26.01
2023-05-16T21:25:06.193Z,26.01
2023-05-16T21:26:45.912Z,25.99
2023-05-16T21:28:25.750Z,26.01
2023-05-16T21:30:05.490Z,26